createdAt,value
2016-12-05T00:00:16.829Z,15.96
2016-12-05T00:01:27.989Z,15.87
2016-12-05T00:02:39.166Z,15.78
2016-12-05T00:03:50.300Z,15.8
2016-12-05T00:05:01.456Z,15.78
2016-12-05T00:06:12.641Z,15.82
2016-12-05T00:07:23.785Z,15.75
2016-12-05T00:08:34.938Z,15.84
2016-12-05T00:09:46.112Z,15.76
2016-12-05T00:10:57.289Z,15.72
2016-12-05T00:12:08.477Z,15.74
2016-12-05T00:13:19.641Z,15.86
2016-12-05T00:14:30.802Z,15.86
2016-12-05T00:15:42.160Z,15.78
2016-12-05T00:16:53.389Z,15.8
2016-12-05T00:18:04.595Z,15.78
2016-12-05T00:19:15.740Z,15.92
2016-12-05T00:20:26.870Z,16
2016-12-05T00:21:38.045Z,15.9
2016-12-05T00:22:49.208Z,15.9
2016-12-05T00:24:00.362Z,16
2016-12-05T00:25:11.521Z,15.89
2016-12-05T00:26:22.663Z,15.82
2016-12-05T00:27:33.953Z,15.97
2016-12-05T00:28:45.116Z,15.92
2016-12-05T00:29:56.265Z,15.9
2016-12-05T00:31:07.414Z,16.01
2016-12-05T00:32:18.555Z,16.09
2016-12-05T00:33:29.707Z,16.04
2016-12-05T00:34:40.851Z,16.04
2016-12-05T00:35:52.004Z,16.02
2016-12-05T00:37:03.179Z,16.08
2016-12-05T00:38:14.362Z,16.09
2016-12-05T00:39:25.517Z,16.02
2016-12-05T00:40:36.709Z,16.02
2016-12-05T00:41:47.879Z,16.01
2016-12-05T00:42:59.032Z,15.96
2016-12-05T00:44:10.177Z,15.94
2016-12-05T00:45:21.305Z,15.86
2016-12-05T00:46:33.013Z,15.78
2016-12-05T00:47:44.192Z,15.89
2016-12-05T00:48:55.349Z,15.9
2016-12-05T00:50:06.506Z,15.9
2016-12-05T00:51:17.653Z,15.82
2016-12-05T00:52:28.789Z,15.89
2016-12-05T00:53:39.950Z,16
2016-12-05T00:54:51.648Z,15.93
2016-12-05T00:56:02.807Z,15.9
2016-12-05T00:57:13.954Z,15.96
2016-12-05T00:58:25.111Z,16.07
2016-12-05T00:59:36.244Z,16.04
2016-12-05T01:00:47.416Z,16.02
2016-12-05T01:01:58.596Z,16.02
2016-12-05T01:03:09.756Z,16.02
2016-12-05T01:04:20.906Z,16.24
2016-12-05T01:05:32.047Z,16.09
2016-12-05T01:06:43.193Z,15.94
2016-12-05T01:07:54.344Z,16.01
2016-12-05T01:09:05.492Z,15.94
2016-12-05T01:10:16.629Z,15.86
2016-12-05T01:11:27.787Z,15.86
2016-12-05T01:12:38.967Z,15.82
2016-12-05T01:13:50.118Z,15.86
2016-12-05T01:15:01.311Z,15.96
2016-12-05T01:16:12.448Z,15.94
2016-12-05T01:17:23.607Z,15.96
2016-12-05T01:18:34.746Z,15.83
2016-12-05T01:19:45.905Z,15.78
2016-12-05T01:20:57.044Z,15.83
2016-12-05T01:22:08.192Z,15.9
2016-12-05T01:23:19.356Z,15.96
2016-12-05T01:24:30.506Z,16.01
2016-12-05T01:25:41.657Z,15.96
2016-12-05T01:26:52.839Z,15.97
2016-12-05T01:28:03.993Z,15.94
2016-12-05T01:29:15.151Z,15.96
2016-12-05T01:30:26.953Z,15.84
2016-12-05T01:31:38.082Z,15.87
2016-12-05T01:32:49.238Z,15.94
2016-12-05T01:34:00.384Z,15.92
2016-12-05T01:35:11.543Z,16.01
2016-12-05T01:36:22.722Z,15.97
2016-12-05T01:37:33.877Z,16
2016-12-05T01:38:45.034Z,16
2016-12-05T01:39:56.215Z,15.89
2016-12-05T01:41:07.365Z,15.94
2016-12-05T01:42:18.522Z,15.96
2016-12-05T01:43:29.690Z,15.92
2016-12-05T01:44:40.831Z,15.97
2016-12-05T01:45:51.987Z,15.94
2016-12-05T01:47:03.145Z,15.97
2016-12-05T01:48:14.300Z,16
2016-12-05T01:49:25.465Z,16.02
2016-12-05T01:50:36.651Z,15.9
2016-12-05T01:51:47.809Z,15.96
2016-12-05T01:52:58.961Z,15.96
2016-12-05T01:54:10.133Z,15.96
2016-12-05T01:55:21.287Z,15.89
2016-12-05T01:56:32.449Z,15.93
2016-12-05T01:57:43.608Z,15.89
2016-12-05T01:58:54.781Z,15.92
2016-12-05T02:00:05.954Z,15.92
2016-12-05T02:01:17.147Z,15.89
2016-12-05T02:02:28.279Z,15.84
2016-12-05T02:03:39.449Z,15.96
2016-12-05T02:04:50.603Z,15.92
2016-12-05T02:06:01.745Z,16
2016-12-05T02:07:12.911Z,15.97
2016-12-05T02:08:24.065Z,16.05
2016-12-05T02:09:35.201Z,15.96
2016-12-05T02:10:46.352Z,16
2016-12-05T02:11:57.543Z,15.9
2016-12-05T02:13:08.706Z,16.05
2016-12-05T02:14:19.889Z,16.01
2016-12-05T02:15:31.052Z,15.93
2016-12-05T02:16:42.220Z,15.96
2016-12-05T02:17:53.390Z,15.89
2016-12-05T02:19:04.578Z,15.89
2016-12-05T02:20:15.725Z,15.86
2016-12-05T02:21:26.897Z,15.93
2016-12-05T02:22:38.032Z,15.9
2016-12-05T02:23:49.169Z,15.8
2016-12-05T02:25:00.318Z,15.86
2016-12-05T02:26:11.482Z,15.93
2016-12-05T02:27:22.625Z,15.93
2016-12-05T02:28:33.776Z,15.86
2016-12-05T02:29:44.957Z,15.92
2016-12-05T02:30:56.124Z,15.83
2016-12-05T02:32:07.301Z,15.97
2016-12-05T02:33:18.429Z,15.87
2016-12-05T02:34:29.575Z,16.01
2016-12-05T02:35:40.757Z,16.07
2016-12-05T02:36:51.936Z,16.07
2016-12-05T02:38:03.093Z,16.04
2016-12-05T02:39:14.232Z,16.01
2016-12-05T02:40:25.370Z,16.05
2016-12-05T02:41:36.525Z,16
2016-12-05T02:42:47.710Z,15.93
2016-12-05T02:43:58.875Z,15.87
2016-12-05T02:45:10.054Z,15.9
2016-12-05T02:46:21.253Z,15.9
2016-12-05T02:47:32.391Z,16
2016-12-05T02:48:43.594Z,16.04
2016-12-05T02:49:54.768Z,16.07
2016-12-05T02:51:05.934Z,16.05
2016-12-05T02:52:17.093Z,16.05
2016-12-05T02:53:28.270Z,15.96
2016-12-05T02:54:39.466Z,16.05
2016-12-05T02:55:50.614Z,16.02
2016-12-05T02:57:01.772Z,16.05
2016-12-05T02:58:12.926Z,16.08
2016-12-05T02:59:24.096Z,16.05
2016-12-05T03:00:35.242Z,15.97
2016-12-05T03:01:46.370Z,15.87
2016-12-05T03:02:57.525Z,15.97
2016-12-05T03:04:08.681Z,15.86
2016-12-05T03:05:19.844Z,15.92
2016-12-05T03:06:31.002Z,15.92
2016-12-05T03:07:42.155Z,15.89
2016-12-05T03:08:53.343Z,15.83
2016-12-05T03:10:04.488Z,15.83
2016-12-05T03:11:15.643Z,15.82
2016-12-05T03:12:26.798Z,15.82
2016-12-05T03:13:37.996Z,15.78
2016-12-05T03:14:49.149Z,15.8
2016-12-05T03:16:00.301Z,15.8
2016-12-05T03:17:11.464Z,15.93
2016-12-05T03:18:22.624Z,15.97
2016-12-05T03:19:33.806Z,15.87
2016-12-05T03:20:44.979Z,15.97
2016-12-05T03:21:56.154Z,15.93
2016-12-05T03:23:07.328Z,15.97
2016-12-05T03:24:18.481Z,16
2016-12-05T03:25:29.671Z,16
2016-12-05T03:26:40.830Z,15.96
2016-12-05T03:27:51.990Z,15.96
2016-12-05T03:29:03.137Z,15.96
2016-12-05T03:30:14.272Z,16.11
2016-12-05T03:31:25.414Z,16.07
2016-12-05T03:32:36.592Z,16.09
2016-12-05T03:33:47.726Z,16.02
2016-12-05T03:34:58.885Z,15.97
2016-12-05T03:36:10.036Z,15.93
2016-12-05T03:37:21.185Z,15.89
2016-12-05T03:38:32.336Z,15.75
2016-12-05T03:39:43.511Z,15.64
2016-12-05T03:40:54.681Z,15.57
2016-12-05T03:42:05.847Z,15.5
2016-12-05T03:43:16.987Z,15.46
2016-12-05T03:44:28.152Z,15.51
2016-12-05T03:45:39.325Z,15.47
2016-12-05T03:46:50.469Z,15.47
2016-12-05T03:48:01.627Z,15.44
2016-12-05T03:49:12.792Z,15.39
2016-12-05T03:50:25.135Z,15.49
2016-12-05T03:51:36.972Z,15.53
2016-12-05T03:52:48.117Z,15.54
2016-12-05T03:53:59.267Z,15.53
2016-12-05T03:55:10.423Z,15.56
2016-12-05T03:56:21.588Z,15.59
2016-12-05T03:57:32.736Z,15.64
2016-12-05T03:58:43.891Z,15.67
2016-12-05T03:59:55.067Z,15.69
2016-12-05T04:01:06.240Z,15.69
2016-12-05T04:02:17.400Z,15.72
2016-12-05T04:03:28.572Z,15.75
2016-12-05T04:04:39.710Z,15.76
2016-12-05T04:05:50.864Z,15.78
2016-12-05T04:07:02.035Z,15.74
2016-12-05T04:08:13.180Z,15.82
2016-12-05T04:09:24.514Z,15.84
2016-12-05T04:10:36.161Z,15.89
2016-12-05T04:11:47.334Z,15.94
2016-12-05T04:12:58.479Z,16
2016-12-05T04:14:09.647Z,15.94
2016-12-05T04:15:20.822Z,15.89
2016-12-05T04:16:31.985Z,15.89
2016-12-05T04:17:43.172Z,15.93
2016-12-05T04:18:54.323Z,15.9
2016-12-05T04:20:05.511Z,15.93
2016-12-05T04:21:16.670Z,15.92
2016-12-05T04:22:27.840Z,16.04
2016-12-05T04:23:39.027Z,15.96
2016-12-05T04:24:50.220Z,15.97
2016-12-05T04:26:01.393Z,16.01
2016-12-05T04:27:12.571Z,16.01
2016-12-05T04:28:23.752Z,16.05
2016-12-05T04:29:34.920Z,16.04
2016-12-05T04:30:46.064Z,16.08
2016-12-05T04:31:57.237Z,16.04
2016-12-05T04:33:08.431Z,16.08
2016-12-05T04:34:19.589Z,16.05
2016-12-05T04:35:30.741Z,16.11
2016-12-05T04:36:41.883Z,16.07
2016-12-05T04:37:53.075Z,16.04
2016-12-05T04:39:04.235Z,16.05
2016-12-05T04:40:15.373Z,16.04
2016-12-05T04:41:26.511Z,16.02
2016-12-05T04:42:38.247Z,16.09
2016-12-05T04:43:49.422Z,16.05
2016-12-05T04:45:00.612Z,15.93
2016-12-05T04:46:11.762Z,16
2016-12-05T04:47:22.913Z,15.89
2016-12-05T04:48:34.082Z,15.89
2016-12-05T04:49:45.259Z,15.94
2016-12-05T04:50:56.424Z,15.96
2016-12-05T04:52:07.577Z,15.94
2016-12-05T04:53:18.754Z,16.04
2016-12-05T04:54:29.914Z,15.94
2016-12-05T04:55:41.046Z,15.94
2016-12-05T04:56:52.179Z,15.94
2016-12-05T04:58:03.322Z,16.01
2016-12-05T04:59:14.476Z,15.97
2016-12-05T05:00:25.639Z,15.94
2016-12-05T05:01:36.829Z,15.93
2016-12-05T05:02:48.009Z,15.97
2016-12-05T05:03:59.150Z,16
2016-12-05T05:05:10.329Z,16.01
2016-12-05T05:06:21.486Z,16
2016-12-05T05:07:32.663Z,15.96
2016-12-05T05:08:43.825Z,16.14
2016-12-05T05:09:54.998Z,16.12
2016-12-05T05:11:06.178Z,16.08
2016-12-05T05:12:17.333Z,16.12
2016-12-05T05:13:28.492Z,16.23
2016-12-05T05:14:39.659Z,16.17
2016-12-05T05:15:50.789Z,16.04
2016-12-05T05:17:01.942Z,16.07
2016-12-05T05:18:13.107Z,16.04
2016-12-05T05:19:24.242Z,16.04
2016-12-05T05:20:35.397Z,15.93
2016-12-05T05:21:46.558Z,15.9
2016-12-05T05:22:57.688Z,15.84
2016-12-05T05:24:08.838Z,15.76
2016-12-05T05:25:20.014Z,15.68
2016-12-05T05:26:31.202Z,15.51
2016-12-05T05:27:42.383Z,15.54
2016-12-05T05:28:53.577Z,15.69
2016-12-05T05:30:04.748Z,15.53
2016-12-05T05:31:15.869Z,15.51
2016-12-05T05:32:27.613Z,15.5
2016-12-05T05:33:38.784Z,15.49
2016-12-05T05:34:49.922Z,15.53
2016-12-05T05:36:01.093Z,15.6
2016-12-05T05:37:12.262Z,15.69
2016-12-05T05:38:23.413Z,15.67
2016-12-05T05:39:34.578Z,15.62
2016-12-05T05:40:46.311Z,15.62
2016-12-05T05:41:58.077Z,15.68
2016-12-05T05:43:09.229Z,15.78
2016-12-05T05:44:20.403Z,15.71
2016-12-05T05:45:31.585Z,15.74
2016-12-05T05:46:42.751Z,15.67
2016-12-05T05:47:53.877Z,15.53
2016-12-05T05:49:05.056Z,15.49
2016-12-05T05:50:16.226Z,15.51
2016-12-05T05:51:27.411Z,15.5
2016-12-05T05:52:38.595Z,15.44
2016-12-05T05:53:49.761Z,15.56
2016-12-05T05:55:00.945Z,15.51
2016-12-05T05:56:12.133Z,15.44
2016-12-05T05:57:23.317Z,15.44
2016-12-05T05:58:34.488Z,15.43
2016-12-05T05:59:45.672Z,15.38
2016-12-05T06:00:56.825Z,15.44
2016-12-05T06:02:08.009Z,15.49
2016-12-05T06:03:19.175Z,15.43
2016-12-05T06:04:30.352Z,15.28
2016-12-05T06:05:41.535Z,15.17
2016-12-05T06:06:52.707Z,15.27
2016-12-05T06:08:03.870Z,15.35
2016-12-05T06:09:15.044Z,15.36
2016-12-05T06:10:26.228Z,15.36
2016-12-05T06:11:37.371Z,15.23
2016-12-05T06:12:48.547Z,15.28
2016-12-05T06:13:59.703Z,15.34
2016-12-05T06:15:10.873Z,15.29
2016-12-05T06:16:22.060Z,15.36
2016-12-05T06:17:33.232Z,15.39
2016-12-05T06:18:44.429Z,15.41
2016-12-05T06:19:55.585Z,15.43
2016-12-05T06:21:06.763Z,15.47
2016-12-05T06:22:17.956Z,15.41
2016-12-05T06:23:29.151Z,15.44
2016-12-05T06:24:40.316Z,15.41
2016-12-05T06:25:51.495Z,15.38
2016-12-05T06:27:02.694Z,15.41
2016-12-05T06:28:13.837Z,15.47
2016-12-05T06:29:25.008Z,15.47
2016-12-05T06:30:36.158Z,15.51
2016-12-05T06:31:47.290Z,15.46
2016-12-05T06:32:58.429Z,15.46
2016-12-05T06:34:09.599Z,15.49
2016-12-05T06:35:20.760Z,15.36
2016-12-05T06:36:32.480Z,15.35
2016-12-05T06:37:43.664Z,15.43
2016-12-05T06:38:54.822Z,15.38
2016-12-05T06:40:06.024Z,15.36
2016-12-05T06:41:17.190Z,15.44
2016-12-05T06:42:28.361Z,15.54
2016-12-05T06:43:39.524Z,15.47
2016-12-05T06:44:50.672Z,15.49
2016-12-05T06:46:01.843Z,15.54
2016-12-05T06:47:13.604Z,15.35
2016-12-05T06:48:24.784Z,15.2
2016-12-05T06:49:35.903Z,15.21
2016-12-05T06:50:47.049Z,15.06
2016-12-05T06:51:58.225Z,15.03
2016-12-05T06:53:09.396Z,15.06
2016-12-05T06:54:20.576Z,15.01
2016-12-05T06:55:31.741Z,14.99
2016-12-05T06:56:42.886Z,15.1
2016-12-05T06:57:54.045Z,14.91
2016-12-05T06:59:06.367Z,15.01
2016-12-05T07:00:17.558Z,15.02
2016-12-05T07:01:28.746Z,15.03
2016-12-05T07:02:40.474Z,15.06
2016-12-05T07:03:51.665Z,15.02
2016-12-05T07:05:02.826Z,15.02
2016-12-05T07:06:13.974Z,15.01
2016-12-05T07:07:25.129Z,15.02
2016-12-05T07:08:36.297Z,15.02
2016-12-05T07:09:47.475Z,15.02
2016-12-05T07:10:58.627Z,15.03
2016-12-05T07:12:09.772Z,15.01
2016-12-05T07:13:20.947Z,15.02
2016-12-05T07:14:32.112Z,14.99
2016-12-05T07:15:43.283Z,15.01
2016-12-05T07:16:54.454Z,15.01
2016-12-05T07:18:05.613Z,15.03
2016-12-05T07:19:16.806Z,14.96
2016-12-05T07:20:27.964Z,15.07
2016-12-05T07:21:39.140Z,15.02
2016-12-05T07:22:50.337Z,14.96
2016-12-05T07:24:01.527Z,14.92
2016-12-05T07:25:12.658Z,14.95
2016-12-05T07:26:23.835Z,14.95
2016-12-05T07:27:34.982Z,14.92
2016-12-05T07:28:46.130Z,14.95
2016-12-05T07:29:57.308Z,14.8
2016-12-05T07:31:08.470Z,14.89
2016-12-05T07:32:19.623Z,14.94
2016-12-05T07:33:30.761Z,14.83
2016-12-05T07:34:41.894Z,14.92
2016-12-05T07:35:53.053Z,14.88
2016-12-05T07:37:04.189Z,14.92
2016-12-05T07:38:15.370Z,14.92
2016-12-05T07:39:26.535Z,14.88
2016-12-05T07:40:37.703Z,14.99
2016-12-05T07:41:48.850Z,14.99
2016-12-05T07:43:00.016Z,15.03
2016-12-05T07:44:11.179Z,14.96
2016-12-05T07:45:22.364Z,15.16
2016-12-05T07:46:33.596Z,15.14
2016-12-05T07:47:44.726Z,15.16
2016-12-05T07:48:55.865Z,15.19
2016-12-05T07:50:07.597Z,15.11
2016-12-05T07:51:18.769Z,15.2
2016-12-05T07:52:29.926Z,15.16
2016-12-05T07:53:41.114Z,15.17
2016-12-05T07:54:52.274Z,15.2
2016-12-05T07:56:03.426Z,15.2
2016-12-05T07:57:14.619Z,15.2
2016-12-05T07:58:25.770Z,15.2
2016-12-05T07:59:36.958Z,15.21
2016-12-05T08:00:48.111Z,15.2
2016-12-05T08:01:59.279Z,15.17
2016-12-05T08:03:10.436Z,15.2
2016-12-05T08:04:21.578Z,15.17
2016-12-05T08:05:32.788Z,15.19
2016-12-05T08:06:43.941Z,15.2
2016-12-05T08:07:55.086Z,15.23
2016-12-05T08:09:06.255Z,15.27
2016-12-05T08:10:17.435Z,15.2
2016-12-05T08:11:28.583Z,15.19
2016-12-05T08:12:39.769Z,15.25
2016-12-05T08:13:50.919Z,15.32
2016-12-05T08:15:02.095Z,15.32
2016-12-05T08:16:13.279Z,15.35
2016-12-05T08:17:24.419Z,15.31
2016-12-05T08:18:35.582Z,15.35
2016-12-05T08:19:46.748Z,15.38
2016-12-05T08:20:57.930Z,15.39
2016-12-05T08:22:09.097Z,15.36
2016-12-05T08:23:20.283Z,15.36
2016-12-05T08:24:31.481Z,15.36
2016-12-05T08:25:42.647Z,15.43
2016-12-05T08:26:53.824Z,15.32
2016-12-05T08:28:04.998Z,15.36
2016-12-05T08:29:16.140Z,15.36
2016-12-05T08:30:27.340Z,15.36
2016-12-05T08:31:38.502Z,15.41
2016-12-05T08:32:49.697Z,15.43
2016-12-05T08:34:00.841Z,15.41
2016-12-05T08:35:11.990Z,15.39
2016-12-05T08:36:23.135Z,15.46
2016-12-05T08:37:34.320Z,15.29
2016-12-05T08:38:45.480Z,15.39
2016-12-05T08:39:56.624Z,15.39
2016-12-05T08:41:07.761Z,15.34
2016-12-05T08:42:18.914Z,15.39
2016-12-05T08:43:30.070Z,15.38
2016-12-05T08:44:41.280Z,15.49
2016-12-05T08:45:52.427Z,15.54
2016-12-05T08:47:03.575Z,15.43
2016-12-05T08:48:14.743Z,15.49
2016-12-05T08:49:25.905Z,15.46
2016-12-05T08:50:37.084Z,15.44
2016-12-05T08:51:48.244Z,15.39
2016-12-05T08:52:59.422Z,15.36
2016-12-05T08:54:10.552Z,15.39
2016-12-05T08:55:21.701Z,15.46
2016-12-05T08:56:32.849Z,15.41
2016-12-05T08:57:44.001Z,15.39
2016-12-05T08:58:55.136Z,15.47
2016-12-05T09:00:06.273Z,15.46
2016-12-05T09:01:17.440Z,15.54
2016-12-05T09:02:28.603Z,15.71
2016-12-05T09:03:39.762Z,15.71
2016-12-05T09:04:50.936Z,15.76
2016-12-05T09:06:02.091Z,15.75
2016-12-05T09:07:13.284Z,15.74
2016-12-05T09:08:24.433Z,15.74
2016-12-05T09:09:35.593Z,15.83
2016-12-05T09:10:46.740Z,15.78
2016-12-05T09:11:57.909Z,15.76
2016-12-05T09:13:09.030Z,15.84
2016-12-05T09:14:20.191Z,15.9
2016-12-05T09:15:31.362Z,15.9
2016-12-05T09:16:42.498Z,15.84
2016-12-05T09:17:53.643Z,15.9
2016-12-05T09:19:04.818Z,15.87
2016-12-05T09:20:15.977Z,15.82
2016-12-05T09:21:27.153Z,15.83
2016-12-05T09:22:38.327Z,15.89
2016-12-05T09:23:49.483Z,16.02
2016-12-05T09:25:00.618Z,16.05
2016-12-05T09:26:11.759Z,16.05
2016-12-05T09:27:22.897Z,15.97
2016-12-05T09:28:34.042Z,16.04
2016-12-05T09:29:45.205Z,16.08
2016-12-05T09:30:56.384Z,16.24
2016-12-05T09:32:07.518Z,16.38
2016-12-05T09:33:18.668Z,16.43
2016-12-05T09:34:29.864Z,16.46
2016-12-05T09:35:41.034Z,16.63
2016-12-05T09:36:52.198Z,16.66
2016-12-05T09:38:03.381Z,16.73
2016-12-05T09:39:14.550Z,16.85
2016-12-05T09:40:25.769Z,16.88
2016-12-05T09:41:37.494Z,17.07
2016-12-05T09:42:48.657Z,17.37
2016-12-05T09:43:59.835Z,17.7
2016-12-05T09:45:10.985Z,17.84
2016-12-05T09:46:22.135Z,17.77
2016-12-05T09:47:33.286Z,17.58
2016-12-05T09:48:44.458Z,17.28
2016-12-05T09:49:55.619Z,17.07
2016-12-05T09:51:06.777Z,16.96
2016-12-05T09:52:17.932Z,16.83
2016-12-05T09:53:29.113Z,16.85
2016-12-05T09:54:40.279Z,16.7
2016-12-05T09:55:51.450Z,16.67
2016-12-05T09:57:03.155Z,16.64
2016-12-05T09:58:14.331Z,16.6
2016-12-05T09:59:25.484Z,16.61
2016-12-05T10:00:36.631Z,16.6
2016-12-05T10:01:47.811Z,16.78
2016-12-05T10:02:58.951Z,16.7
2016-12-05T10:04:10.160Z,16.76
2016-12-05T10:05:21.306Z,16.91
2016-12-05T10:06:32.445Z,17.03
2016-12-05T10:07:43.582Z,17.16
2016-12-05T10:08:54.738Z,17.66
2016-12-05T10:10:05.879Z,18.17
2016-12-05T10:11:17.047Z,18.39
2016-12-05T10:12:28.233Z,18.27
2016-12-05T10:13:39.390Z,18.02
2016-12-05T10:14:51.090Z,17.99
2016-12-05T10:16:02.228Z,18.57
2016-12-05T10:17:13.411Z,19.11
2016-12-05T10:18:24.567Z,19.39
2016-12-05T10:19:35.743Z,19.39
2016-12-05T10:20:46.916Z,19.06
2016-12-05T10:21:58.096Z,18.91
2016-12-05T10:23:09.248Z,18.82
2016-12-05T10:24:20.424Z,18.81
2016-12-05T10:25:31.590Z,19.36
2016-12-05T10:26:42.766Z,20.02
2016-12-05T10:27:53.899Z,20.97
2016-12-05T10:29:05.050Z,22.05
2016-12-05T10:30:16.207Z,22.46
2016-12-05T10:31:27.371Z,22.49
2016-12-05T10:32:38.008Z,22.37
2016-12-05T10:33:49.747Z,22.12
2016-12-05T10:35:00.921Z,21.71
2016-12-05T10:36:12.089Z,21.75
2016-12-05T10:37:23.257Z,21.56
2016-12-05T10:38:34.431Z,21.37
2016-12-05T10:39:45.605Z,21.09
2016-12-05T10:40:56.752Z,21.13
2016-12-05T10:42:07.908Z,21.16
2016-12-05T10:43:19.069Z,20.95
2016-12-05T10:44:30.252Z,20.77
2016-12-05T10:45:41.415Z,20.67
2016-12-05T10:46:52.582Z,21.21
2016-12-05T10:48:03.735Z,21.38
2016-12-05T10:49:15.635Z,21.21
2016-12-05T10:50:26.838Z,20.98
2016-12-05T10:51:38.024Z,21.13
2016-12-05T10:52:49.240Z,21.42
2016-12-05T10:54:00.408Z,21.42
2016-12-05T10:55:11.582Z,21.28
2016-12-05T10:56:22.719Z,21.46
2016-12-05T10:57:33.875Z,21.27
2016-12-05T10:58:45.049Z,20.91
2016-12-05T10:59:56.218Z,20.77
2016-12-05T11:01:07.370Z,20.5
2016-12-05T11:02:18.548Z,20.5
2016-12-05T11:03:29.707Z,20.28
2016-12-05T11:04:40.880Z,20.01
2016-12-05T11:05:52.585Z,19.86
2016-12-05T11:07:04.364Z,19.91
2016-12-05T11:08:15.551Z,20.16
2016-12-05T11:09:26.723Z,20.39
2016-12-05T11:10:37.915Z,20.43
2016-12-05T11:11:49.671Z,20.57
2016-12-05T11:13:00.899Z,20.48
2016-12-05T11:14:12.642Z,20.79
2016-12-05T11:15:23.812Z,21.1
2016-12-05T11:16:34.982Z,21.24
2016-12-05T11:17:46.141Z,21.22
2016-12-05T11:18:57.893Z,21.12
2016-12-05T11:20:09.150Z,20.84
2016-12-05T11:21:20.879Z,20.8
2016-12-05T11:22:32.042Z,20.8
2016-12-05T11:23:43.215Z,20.85
2016-12-05T11:24:54.400Z,21.1
2016-12-05T11:26:05.567Z,20.94
2016-12-05T11:27:16.736Z,21.07
2016-12-05T11:28:28.005Z,21.09
2016-12-05T11:29:39.258Z,21.16
2016-12-05T11:30:50.495Z,21.54
2016-12-05T11:32:01.641Z,21.84
2016-12-05T11:33:12.796Z,22.07
2016-12-05T11:34:23.935Z,21.83
2016-12-05T11:35:35.099Z,21.65
2016-12-05T11:36:46.280Z,21.49
2016-12-05T11:37:58.012Z,21.28
2016-12-05T11:39:10.346Z,21.62
2016-12-05T11:40:21.576Z,21.82
2016-12-05T11:41:32.747Z,22.36
2016-12-05T11:42:43.944Z,22.7
2016-12-05T11:43:55.126Z,23.07
2016-12-05T11:45:06.888Z,23.63
2016-12-05T11:46:18.091Z,23.6
2016-12-05T11:47:29.267Z,23.51
2016-12-05T11:48:40.445Z,23.02
2016-12-05T11:49:51.744Z,23.35
2016-12-05T11:51:02.915Z,23.28
2016-12-05T11:52:14.095Z,23.4
2016-12-05T11:53:25.299Z,23.25
2016-12-05T11:54:36.466Z,23.16
2016-12-05T11:55:47.667Z,23.16
2016-12-05T11:56:58.850Z,23.35
2016-12-05T11:58:10.011Z,23.51
2016-12-05T11:59:21.172Z,23.32
2016-12-05T12:00:32.337Z,23.12
2016-12-05T12:01:43.493Z,22.91
2016-12-05T12:02:54.673Z,22.57
2016-12-05T12:04:05.822Z,22.55
2016-12-05T12:05:17.023Z,22.76
2016-12-05T12:06:28.183Z,22.75
2016-12-05T12:07:39.393Z,22.67
2016-12-05T12:08:50.539Z,22.83
2016-12-05T12:10:01.722Z,23.15
2016-12-05T12:11:12.898Z,22.94
2016-12-05T12:12:24.050Z,22.92
2016-12-05T12:13:35.817Z,22.72
2016-12-05T12:14:46.960Z,22.7
2016-12-05T12:15:58.160Z,22.46
2016-12-05T12:17:09.339Z,22.28
2016-12-05T12:18:20.535Z,22.52
2016-12-05T12:19:31.700Z,22.33
2016-12-05T12:20:42.880Z,22.35
2016-12-05T12:21:54.055Z,22.52
2016-12-05T12:23:05.219Z,22.76
2016-12-05T12:24:16.362Z,23.01
2016-12-05T12:25:27.548Z,23.51
2016-12-05T12:26:38.738Z,23.72
2016-12-05T12:27:49.902Z,23.69
2016-12-05T12:29:01.052Z,23.46
2016-12-05T12:30:12.215Z,23.25
2016-12-05T12:31:23.471Z,23.54
2016-12-05T12:32:34.636Z,23.33
2016-12-05T12:33:45.804Z,23.28
2016-12-05T12:34:56.973Z,23.2
2016-12-05T12:36:08.186Z,22.75
2016-12-05T12:37:19.348Z,22.7
2016-12-05T12:38:30.517Z,22.82
2016-12-05T12:39:41.727Z,23.07
2016-12-05T12:40:52.901Z,23.05
2016-12-05T12:42:04.098Z,23.2
2016-12-05T12:43:15.301Z,23.28
2016-12-05T12:44:26.489Z,22.98
2016-12-05T12:45:37.672Z,22.8
2016-12-05T12:46:48.858Z,22.86
2016-12-05T12:48:00.042Z,22.77
2016-12-05T12:49:11.226Z,23.01
2016-12-05T12:50:22.412Z,23.19
2016-12-05T12:51:33.610Z,23.39
2016-12-05T12:52:45.343Z,23.8
2016-12-05T12:53:56.498Z,23.61
2016-12-05T12:55:07.687Z,23.07
2016-12-05T12:56:18.862Z,23.02
2016-12-05T12:57:30.044Z,23.31
2016-12-05T12:58:41.225Z,23.79
2016-12-05T12:59:52.377Z,24.06
2016-12-05T13:01:03.551Z,23.69
2016-12-05T13:02:14.729Z,23.53
2016-12-05T13:03:25.895Z,23.66
2016-12-05T13:04:37.293Z,23.33
2016-12-05T13:05:48.775Z,23.46
2016-12-05T13:06:59.923Z,23.84
2016-12-05T13:08:11.101Z,24.08
2016-12-05T13:09:22.248Z,24.13
2016-12-05T13:10:33.414Z,24.13
2016-12-05T13:11:44.595Z,24.32
2016-12-05T13:12:55.761Z,24.25
2016-12-05T13:14:06.944Z,23.8
2016-12-05T13:15:18.144Z,23.39
2016-12-05T13:16:29.358Z,23.36
2016-12-05T13:17:40.548Z,23.8
2016-12-05T13:18:52.287Z,23.75
2016-12-05T13:20:03.466Z,23.43
2016-12-05T13:21:14.605Z,23.07
2016-12-05T13:22:25.764Z,23.07
2016-12-05T13:23:36.912Z,23.1
2016-12-05T13:24:48.101Z,23.05
2016-12-05T13:25:59.264Z,23.54
2016-12-05T13:27:10.425Z,24
2016-12-05T13:28:21.575Z,24.18
2016-12-05T13:29:32.775Z,23.94
2016-12-05T13:30:43.935Z,23.94
2016-12-05T13:31:55.088Z,23.9
2016-12-05T13:33:06.271Z,24.05
2016-12-05T13:34:17.417Z,24.24
2016-12-05T13:35:28.607Z,24.18
2016-12-05T13:36:39.770Z,24.18
2016-12-05T13:37:50.916Z,23.78
2016-12-05T13:39:02.091Z,23.58
2016-12-05T13:40:13.256Z,23.42
2016-12-05T13:41:24.409Z,23.32
2016-12-05T13:42:35.568Z,23.38
2016-12-05T13:43:47.299Z,23.36
2016-12-05T13:44:58.472Z,23.36
2016-12-05T13:46:09.663Z,23.4
2016-12-05T13:47:20.848Z,23.9
2016-12-05T13:48:32.041Z,24.15
2016-12-05T13:49:43.213Z,23.87
2016-12-05T13:50:54.381Z,23.6
2016-12-05T13:52:05.529Z,23.57
2016-12-05T13:53:16.688Z,23.66
2016-12-05T13:54:27.868Z,24
2016-12-05T13:55:39.027Z,24.39
2016-12-05T13:56:50.173Z,24.6
2016-12-05T13:58:01.418Z,24.85
2016-12-05T13:59:12.594Z,24.87
2016-12-05T14:00:24.331Z,24.8
2016-12-05T14:01:35.507Z,25.02
2016-12-05T14:02:46.666Z,25.28
2016-12-05T14:03:57.838Z,25.05
2016-12-05T14:05:09.018Z,24.35
2016-12-05T14:06:20.169Z,24.3
2016-12-05T14:07:31.904Z,24.5
2016-12-05T14:08:43.081Z,24.71
2016-12-05T14:09:54.283Z,24.83
2016-12-05T14:11:05.593Z,24.96
2016-12-05T14:12:16.778Z,25.02
2016-12-05T14:13:27.956Z,24.58
2016-12-05T14:14:39.106Z,24.4
2016-12-05T14:15:50.489Z,24.02
2016-12-05T14:17:01.660Z,23.75
2016-12-05T14:18:12.820Z,23.93
2016-12-05T14:19:23.979Z,24.2
2016-12-05T14:20:35.142Z,24.77
2016-12-05T14:21:46.907Z,24.8
2016-12-05T14:22:58.093Z,24.91
2016-12-05T14:24:09.257Z,24.85
2016-12-05T14:25:20.413Z,24.5
2016-12-05T14:26:31.602Z,24.37
2016-12-05T14:27:42.775Z,24.37
2016-12-05T14:28:53.957Z,24.45
2016-12-05T14:30:05.108Z,24.6
2016-12-05T14:31:16.269Z,24.93
2016-12-05T14:32:27.438Z,25.05
2016-12-05T14:33:38.588Z,25.15
2016-12-05T14:34:49.746Z,25.18
2016-12-05T14:36:00.928Z,24.93
2016-12-05T14:37:12.082Z,25.02
2016-12-05T14:38:23.285Z,24.98
2016-12-05T14:39:34.467Z,25.15
2016-12-05T14:40:45.636Z,24.98
2016-12-05T14:41:56.848Z,24.99
2016-12-05T14:43:08.026Z,24.9
2016-12-05T14:44:19.193Z,25.02
2016-12-05T14:45:30.336Z,25.28
2016-12-05T14:46:41.513Z,25.82
2016-12-05T14:47:52.747Z,26.15
2016-12-05T14:49:03.950Z,25.64
2016-12-05T14:50:15.133Z,25.27
2016-12-05T14:51:26.297Z,25.32
2016-12-05T14:52:37.543Z,25.46
2016-12-05T14:53:48.759Z,25.4
2016-12-05T14:54:59.940Z,25.43
2016-12-05T14:56:11.101Z,25.5
2016-12-05T14:57:22.242Z,25.88
2016-12-05T14:58:33.435Z,25.92
2016-12-05T14:59:44.572Z,25.69
2016-12-05T15:00:55.765Z,25.9
2016-12-05T15:02:06.920Z,26.3
2016-12-05T15:03:18.119Z,26.06
2016-12-05T15:04:29.291Z,25.82
2016-12-05T15:05:40.474Z,25.76
2016-12-05T15:06:51.688Z,25.72
2016-12-05T15:08:02.866Z,25.57
2016-12-05T15:09:14.059Z,25.28
2016-12-05T15:10:25.225Z,25.72
2016-12-05T15:11:36.360Z,26.26
2016-12-05T15:12:47.555Z,26.55
2016-12-05T15:13:58.795Z,26.1
2016-12-05T15:15:09.963Z,25.92
2016-12-05T15:16:21.172Z,25.94
2016-12-05T15:17:32.345Z,26.01
2016-12-05T15:18:43.503Z,26.29
2016-12-05T15:19:55.265Z,26.45
2016-12-05T15:21:06.489Z,26.58
2016-12-05T15:22:17.681Z,26.58